createdAt,value
2022-08-28T00:00:54.866Z,96604.94
2022-08-28T00:01:56.965Z,96596.41
2022-08-28T00:02:58.976Z,96604.22
2022-08-28T00:04:01.085Z,96605.78
2022-08-28T00:05:02.802Z,96604.19
2022-08-28T00:06:04.846Z,96605.25
2022-08-28T00:07:06.854Z,96602.41
2022-08-28T00:08:11.218Z,96603.94
2022-08-28T00:09:12.955Z,96605.81
2022-08-28T00:10:17.106Z,96606.13
2022-08-28T00:11:21.091Z,96608.09
2022-08-28T00:12:22.913Z,96609.31
2022-08-28T00:13:25.642Z,96603.50
2022-08-28T00:14:27.368Z,96607.88
2022-08-28T00:15:33.213Z,96611.84
2022-08-28T00:16:35.981Z,96609.88
2022-08-28T00:17:38.319Z,96605.97
2022-08-28T00:18:40.028Z,96613.34
2022-08-28T00:19:41.803Z,96608.63
2022-08-28T00:20:44.402Z,96615.97
2022-08-28T00:21:47.728Z,96617.13
2022-08-28T00:22:49.749Z,96611.66
2022-08-28T00:23:52.597Z,96608.84
2022-08-28T00:24:55.067Z,96607.31
2022-08-28T00:25:57.363Z,96605.34
2022-08-28T00:27:18.574Z,96610.03
2022-08-28T00:28:23.667Z,96611.59
2022-08-28T00:29:25.649Z,96607.69
2022-08-28T00:30:38.731Z,96607.06
2022-08-28T00:31:40.418Z,96617.44
2022-08-28T00:32:42.124Z,96610.16
2022-08-28T00:33:43.691Z,96607.53
2022-08-28T00:34:45.260Z,96610.09
2022-08-28T00:35:48.642Z,96609.81
2022-08-28T00:36:50.238Z,96609.56
2022-08-28T00:37:54.659Z,96613.53
2022-08-28T00:38:59.905Z,96621.06
2022-08-28T00:40:02.010Z,96607.44
2022-08-28T00:41:05.052Z,96614.38
2022-08-28T00:42:06.861Z,96616.78
2022-08-28T00:43:10.003Z,96617.22
2022-08-28T00:44:20.953Z,96617.66
2022-08-28T00:45:23.935Z,96610.69
2022-08-28T00:46:25.585Z,96612.31
2022-08-28T00:47:28.358Z,96611.63
2022-08-28T00:48:30.024Z,96603.44
2022-08-28T00:49:35.976Z,96604.69
2022-08-28T00:50:56.745Z,96605.53
2022-08-28T00:52:06.034Z,96607.63
2022-08-28T00:53:07.653Z,96607.97
2022-08-28T00:54:09.995Z,96611.78
2022-08-28T00:55:15.835Z,96606.22
2022-08-28T00:56:19.074Z,96610.78
2022-08-28T00:57:34.311Z,96613.84
2022-08-28T00:58:36.350Z,96610.66
2022-08-28T00:59:38.096Z,96608.59
2022-08-28T01:00:42.049Z,96610.09
2022-08-28T01:01:45.576Z,96617.38
2022-08-28T01:02:47.302Z,96615.75
2022-08-28T01:03:49.229Z,96619.13
2022-08-28T01:04:50.970Z,96617.19
2022-08-28T01:05:52.771Z,96614.00
2022-08-28T01:06:57.025Z,96620.63
2022-08-28T01:07:59.384Z,96617.91
2022-08-28T01:09:01.238Z,96617.91
2022-08-28T01:10:05.613Z,96621.84
2022-08-28T01:11:09.141Z,96616.41
2022-08-28T01:12:15.156Z,96616.84
2022-08-28T01:13:17.694Z,96614.91
2022-08-28T01:14:23.184Z,96617.63
2022-08-28T01:15:33.633Z,96619.63
2022-08-28T01:16:36.742Z,96613.47
2022-08-28T01:17:43.185Z,96617.38
2022-08-28T01:18:46.766Z,96615.81
2022-08-28T01:19:57.085Z,96616.63
2022-08-28T01:21:23.838Z,96613.31
2022-08-28T01:22:37.349Z,96610.78
2022-08-28T01:23:44.930Z,96613.94
2022-08-28T01:24:49.137Z,96607.72
2022-08-28T01:25:52.497Z,96605.44
2022-08-28T01:26:54.106Z,96608.66
2022-08-28T01:27:55.885Z,96609.81
2022-08-28T01:29:01.389Z,96608.56
2022-08-28T01:30:03.840Z,96621.69
2022-08-28T01:31:05.608Z,96613.84
2022-08-28T01:32:07.336Z,96617.66
2022-08-28T01:33:11.981Z,96621.88
2022-08-28T01:34:14.332Z,96621.84
2022-08-28T01:35:20.044Z,96616.72
2022-08-28T01:36:21.838Z,96623.66
2022-08-28T01:37:23.463Z,96619.72
2022-08-28T01:38:26.981Z,96617.72
2022-08-28T01:39:29.064Z,96622.75
2022-08-28T01:40:40.040Z,96621.91
2022-08-28T01:41:43.706Z,96620.75
2022-08-28T01:42:45.288Z,96626.53
2022-08-28T01:43:46.883Z,96619.91
2022-08-28T01:44:50.182Z,96616.38
2022-08-28T01:45:59.594Z,96618.72
2022-08-28T01:47:01.235Z,96624.19
2022-08-28T01:48:03.234Z,96624.97
2022-08-28T01:49:04.868Z,96622.59
2022-08-28T01:50:09.211Z,96626.47
2022-08-28T01:51:12.303Z,96618.66
2022-08-28T01:52:14.044Z,96621.72
2022-08-28T01:53:24.968Z,96621.66
2022-08-28T01:54:28.859Z,96620.00
2022-08-28T01:55:32.494Z,96615.34
2022-08-28T01:56:35.097Z,96619.25
2022-08-28T01:57:43.543Z,96619.25
2022-08-28T01:59:50.912Z,96624.72
2022-08-28T02:00:53.613Z,96623.94
2022-08-28T02:01:55.368Z,96634.13
2022-08-28T02:02:58.758Z,96623.19
2022-08-28T02:04:00.831Z,96627.88
2022-08-28T02:05:02.612Z,96627.88
2022-08-28T02:06:04.784Z,96625.94
2022-08-28T02:07:06.464Z,96623.19
2022-08-28T02:08:08.193Z,96624.72
2022-08-28T02:09:10.281Z,96620.81
2022-08-28T02:10:17.025Z,96627.88
2022-08-28T02:11:18.597Z,96627.50
2022-08-28T02:12:20.709Z,96623.22
2022-08-28T02:13:22.410Z,96627.91
2022-08-28T02:14:27.354Z,96625.63
2022-08-28T02:15:30.798Z,96623.47
2022-08-28T02:16:32.378Z,96624.00
2022-08-28T02:17:35.274Z,96619.06
2022-08-28T02:18:38.597Z,96621.50
2022-08-28T02:19:40.195Z,96628.59
2022-08-28T02:20:42.987Z,96620.91
2022-08-28T02:21:45.003Z,96624.88
2022-08-28T02:22:46.604Z,96622.56
2022-08-28T02:23:48.257Z,96624.66
2022-08-28T02:24:49.810Z,96621.13
2022-08-28T02:25:51.411Z,96622.63
2022-08-28T02:26:52.963Z,96621.41
2022-08-28T02:27:55.211Z,96617.47
2022-08-28T02:28:56.815Z,96625.19
2022-08-28T02:29:58.899Z,96627.09
2022-08-28T02:31:00.578Z,96623.59
2022-08-28T02:32:02.461Z,96631.78
2022-08-28T02:33:04.212Z,96628.66
2022-08-28T02:34:05.990Z,96628.66
2022-08-28T02:35:12.038Z,96631.81
2022-08-28T02:36:15.256Z,96627.91
2022-08-28T02:37:16.871Z,96631.38
2022-08-28T02:38:18.899Z,96637.19
2022-08-28T02:39:20.569Z,96634.06
2022-08-28T02:40:25.744Z,96628.59
2022-08-28T02:41:27.403Z,96631.72
2022-08-28T02:42:29.410Z,96622.97
2022-08-28T02:43:31.270Z,96627.72
2022-08-28T02:44:33.043Z,96624.31
2022-08-28T02:45:35.493Z,96619.81
2022-08-28T02:46:37.208Z,96626.19
2022-08-28T02:47:40.270Z,96625.81
2022-08-28T02:48:42.290Z,96632.06
2022-08-28T02:49:44.448Z,96627.84
2022-08-28T02:50:47.124Z,96631.00
2022-08-28T02:51:48.809Z,96627.03
2022-08-28T02:52:51.764Z,96623.19
2022-08-28T02:53:53.453Z,96627.44
2022-08-28T02:54:55.061Z,96630.47
2022-08-28T02:55:57.786Z,96624.63
2022-08-28T02:56:59.541Z,96630.03
2022-08-28T02:58:01.174Z,96630.03
2022-08-28T02:59:02.821Z,96628.50
2022-08-28T03:00:06.704Z,96635.53
2022-08-28T03:01:11.092Z,96635.47
2022-08-28T03:02:12.839Z,96632.69
2022-08-28T03:03:14.464Z,96632.25
2022-08-28T03:04:16.929Z,96621.34
2022-08-28T03:05:21.870Z,96631.50
2022-08-28T03:06:23.462Z,96634.88
2022-08-28T03:07:25.028Z,96628.22
2022-08-28T03:08:28.110Z,96630.16
2022-08-28T03:09:30.129Z,96632.16
2022-08-28T03:10:31.720Z,96627.81
2022-08-28T03:11:33.958Z,96633.63
2022-08-28T03:12:35.927Z,96642.56
2022-08-28T03:13:38.143Z,96633.69
2022-08-28T03:14:40.358Z,96636.09
2022-08-28T03:15:43.618Z,96637.69
2022-08-28T03:16:47.463Z,96637.00
2022-08-28T03:17:49.110Z,96632.41
2022-08-28T03:18:52.147Z,96630.84
2022-08-28T03:19:53.809Z,96630.53
2022-08-28T03:20:56.183Z,96631.00
2022-08-28T03:21:57.754Z,96635.31
2022-08-28T03:23:17.976Z,96637.25
2022-08-28T03:24:20.115Z,96639.16
2022-08-28T03:25:22.718Z,96646.53
2022-08-28T03:26:24.541Z,96639.50
2022-08-28T03:27:26.185Z,96647.22
2022-08-28T03:28:30.678Z,96651.13
2022-08-28T03:29:32.502Z,96642.94
2022-08-28T03:30:34.204Z,96641.75
2022-08-28T03:31:36.416Z,96644.09
2022-08-28T03:32:38.147Z,96644.47
2022-08-28T03:33:42.541Z,96644.06
2022-08-28T03:34:45.005Z,96651.84
2022-08-28T03:35:46.765Z,96656.16
2022-08-28T03:36:48.384Z,96649.94
2022-08-28T03:37:49.994Z,96650.03
2022-08-28T03:38:53.815Z,96655.16
2022-08-28T03:39:55.594Z,96660.59
2022-08-28T03:40:57.596Z,96650.44
2022-08-28T03:42:01.001Z,96650.44
2022-08-28T03:43:02.611Z,96662.84
2022-08-28T03:44:05.451Z,96653.53
2022-08-28T03:45:09.781Z,96661.69
2022-08-28T03:46:18.850Z,96664.47
2022-08-28T03:47:21.563Z,96664.13
2022-08-28T03:48:24.440Z,96667.66
2022-08-28T03:49:26.019Z,96667.34
2022-08-28T03:50:29.788Z,96667.75
2022-08-28T03:51:33.404Z,96667.00
2022-08-28T03:52:35.022Z,96674.38
2022-08-28T03:53:37.455Z,96676.75
2022-08-28T03:54:39.056Z,96673.28
2022-08-28T03:55:42.372Z,96680.28
2022-08-28T03:56:43.937Z,96671.34
2022-08-28T03:57:45.946Z,96670.94
2022-08-28T03:58:49.267Z,96677.97
2022-08-28T03:59:52.917Z,96675.66
2022-08-28T04:00:55.499Z,96676.06
2022-08-28T04:01:57.143Z,96671.38
2022-08-28T04:02:58.764Z,96680.28
2022-08-28T04:04:00.728Z,96679.16
2022-08-28T04:05:02.421Z,96676.81
2022-08-28T04:06:04.148Z,96682.59
2022-08-28T04:07:06.333Z,96676.75
2022-08-28T04:08:08.155Z,96688.03
2022-08-28T04:09:09.745Z,96683.00
2022-08-28T04:10:12.232Z,96682.19
2022-08-28T04:11:13.988Z,96684.16
2022-08-28T04:12:16.055Z,96685.31
2022-08-28T04:13:20.012Z,96685.31
2022-08-28T04:14:21.630Z,96677.91
2022-08-28T04:15:23.217Z,96689.13
2022-08-28T04:16:24.804Z,96689.13
2022-08-28T04:17:26.515Z,96687.59
2022-08-28T04:18:28.744Z,96684.88
2022-08-28T04:19:30.311Z,96691.09
2022-08-28T04:20:31.888Z,96687.59
2022-08-28T04:21:33.499Z,96695.72
2022-08-28T04:22:35.445Z,96692.56
2022-08-28T04:23:39.339Z,96703.03
2022-08-28T04:24:40.925Z,96701.84
2022-08-28T04:25:42.543Z,96697.16
2022-08-28T04:26:44.167Z,96696.81
2022-08-28T04:27:45.811Z,96701.88
2022-08-28T04:28:48.628Z,96704.94
2022-08-28T04:29:50.422Z,96711.13
2022-08-28T04:30:56.569Z,96711.88
2022-08-28T04:31:58.449Z,96706.38
2022-08-28T04:33:00.120Z,96711.81
2022-08-28T04:34:04.971Z,96714.88
2022-08-28T04:35:08.802Z,96710.16
2022-08-28T04:36:16.498Z,96717.91
2022-08-28T04:37:18.787Z,96726.34
2022-08-28T04:38:21.136Z,96715.81
2022-08-28T04:39:22.837Z,96717.28
2022-08-28T04:40:24.617Z,96726.50
2022-08-28T04:41:27.589Z,96720.22
2022-08-28T04:42:29.176Z,96727.53
2022-08-28T04:43:30.911Z,96718.53
2022-08-28T04:44:32.537Z,96722.72
2022-08-28T04:45:40.866Z,96719.19
2022-08-28T04:46:42.480Z,96725.81
2022-08-28T04:47:44.053Z,96719.63
2022-08-28T04:48:45.673Z,96717.25
2022-08-28T04:49:47.215Z,96721.19
2022-08-28T04:50:49.859Z,96725.09
2022-08-28T04:51:51.748Z,96718.06
2022-08-28T04:52:53.907Z,96721.19
2022-08-28T04:53:56.422Z,96722.66
2022-08-28T04:54:58.021Z,96724.88
2022-08-28T04:56:04.033Z,96725.66
2022-08-28T04:57:06.436Z,96727.16
2022-08-28T04:58:08.878Z,96731.72
2022-08-28T04:59:11.753Z,96732.38
2022-08-28T05:00:13.736Z,96730.66
2022-08-28T05:01:19.216Z,96730.56
2022-08-28T05:02:20.947Z,96728.03
2022-08-28T05:03:23.515Z,96734.22
2022-08-28T05:04:26.942Z,96732.56
2022-08-28T05:05:28.540Z,96729.72
2022-08-28T05:06:32.549Z,96729.22
2022-08-28T05:07:34.787Z,96727.59
2022-08-28T05:08:36.463Z,96730.97
2022-08-28T05:09:38.172Z,96730.31
2022-08-28T05:10:40.481Z,96731.38
2022-08-28T05:11:42.764Z,96722.72
2022-08-28T05:12:44.427Z,96725.44
2022-08-28T05:13:46.147Z,96728.81
2022-08-28T05:14:49.033Z,96726.31
2022-08-28T05:15:52.224Z,96723.41
2022-08-28T05:16:53.984Z,96732.22
2022-08-28T05:17:55.766Z,96732.84
2022-08-28T05:19:03.151Z,96728.75
2022-08-28T05:20:06.019Z,96733.25
2022-08-28T05:21:20.831Z,96731.59
2022-08-28T05:22:23.283Z,96730.28
2022-08-28T05:23:25.702Z,96733.69
2022-08-28T05:24:27.418Z,96731.00
2022-08-28T05:25:29.303Z,96744.78
2022-08-28T05:26:31.000Z,96733.38
2022-08-28T05:27:32.632Z,96734.91
2022-08-28T05:28:34.246Z,96733.75
2022-08-28T05:29:35.979Z,96737.41
2022-08-28T05:30:39.580Z,96743.56
2022-08-28T05:31:41.564Z,96732.19
2022-08-28T05:32:43.379Z,96744.44
2022-08-28T05:33:47.419Z,96734.78
2022-08-28T05:34:49.068Z,96734.19
2022-08-28T05:35:50.660Z,96729.28
2022-08-28T05:36:52.232Z,96731.38
2022-08-28T05:37:53.966Z,96728.69
2022-08-28T05:38:57.152Z,96731.50
2022-08-28T05:39:58.795Z,96735.13
2022-08-28T05:41:01.113Z,96730.88
2022-08-28T05:42:02.721Z,96732.44
2022-08-28T05:43:04.347Z,96731.06
2022-08-28T05:44:09.243Z,96730.84
2022-08-28T05:45:11.713Z,96725.78
2022-08-28T05:46:13.383Z,96727.16
2022-08-28T05:47:16.662Z,96723.91
2022-08-28T05:48:23.210Z,96725.00
2022-08-28T05:49:24.860Z,96731.00
2022-08-28T05:50:26.794Z,96721.44
2022-08-28T05:51:28.695Z,96729.16
2022-08-28T05:52:30.328Z,96735.19
2022-08-28T05:53:34.326Z,96724.91
2022-08-28T05:54:35.923Z,96725.44
2022-08-28T05:55:40.596Z,96716.13
2022-08-28T05:56:44.501Z,96721.09
2022-08-28T05:57:46.394Z,96729.94
2022-08-28T05:58:48.726Z,96722.81
2022-08-28T05:59:50.891Z,96721.75
2022-08-28T06:00:52.485Z,96722.13
2022-08-28T06:01:54.158Z,96721.38
2022-08-28T06:02:55.817Z,96722.63
2022-08-28T06:04:01.851Z,96725.19
2022-08-28T06:05:03.653Z,96725.66
2022-08-28T06:06:07.258Z,96724.13
2022-08-28T06:07:12.123Z,96722.69
2022-08-28T06:08:13.852Z,96728.53
2022-08-28T06:09:29.093Z,96729.06
2022-08-28T06:10:31.400Z,96725.13
2022-08-28T06:11:33.863Z,96730.50
2022-08-28T06:12:36.530Z,96729.63
2022-08-28T06:13:38.218Z,96728.75
2022-08-28T06:14:40.418Z,96734.34
2022-08-28T06:15:44.646Z,96723.47
2022-08-28T06:16:52.514Z,96728.34
2022-08-28T06:17:54.270Z,96731.72
2022-08-28T06:18:56.281Z,96729.41
2022-08-28T06:19:57.861Z,96727.78
2022-08-28T06:21:02.775Z,96732.94
2022-08-28T06:22:07.237Z,96727.88
2022-08-28T06:23:10.229Z,96732.31
2022-08-28T06:24:13.448Z,96727.56
2022-08-28T06:25:15.077Z,96726.16
2022-08-28T06:26:16.647Z,96726.78
2022-08-28T06:27:18.227Z,96723.91
2022-08-28T06:28:23.411Z,96729.00
2022-08-28T06:29:26.115Z,96721.03
2022-08-28T06:30:27.968Z,96719.53
2022-08-28T06:31:33.422Z,96716.44
2022-08-28T06:32:35.299Z,96717.22
2022-08-28T06:33:37.793Z,96722.94
2022-08-28T06:34:39.457Z,96724.13
2022-08-28T06:35:47.745Z,96723.91
2022-08-28T06:36:53.626Z,96720.56
2022-08-28T06:37:55.682Z,96724.19
2022-08-28T06:38:58.652Z,96717.03
2022-08-28T06:40:00.297Z,96724.31
2022-08-28T06:41:02.606Z,96722.53
2022-08-28T06:42:05.536Z,96721.41
2022-08-28T06:43:07.868Z,96722.31
2022-08-28T06:44:12.526Z,96722.44
2022-08-28T06:45:14.101Z,96721.88
2022-08-28T06:46:16.305Z,96718.78
2022-08-28T06:47:17.999Z,96724.63
2022-08-28T06:48:21.043Z,96715.72
2022-08-28T06:49:22.670Z,96716.22
2022-08-28T06:50:24.296Z,96714.66
2022-08-28T06:51:25.908Z,96717.88
2022-08-28T06:52:27.462Z,96719.28
2022-08-28T06:53:33.626Z,96720.81
2022-08-28T06:54:35.269Z,96718.28
2022-08-28T06:55:38.221Z,96720.53
2022-08-28T06:56:39.823Z,96717.31
2022-08-28T06:57:41.395Z,96721.38
2022-08-28T06:58:50.212Z,96720.13
2022-08-28T06:59:57.795Z,96722.78
2022-08-28T07:01:08.641Z,96720.03
2022-08-28T07:02:10.423Z,96718.75
2022-08-28T07:03:13.570Z,96724.47
2022-08-28T07:04:19.264Z,96709.47
2022-08-28T07:05:21.029Z,96714.53
2022-08-28T07:06:23.917Z,96708.56
2022-08-28T07:07:32.393Z,96713.09
2022-08-28T07:08:35.546Z,96716.72
2022-08-28T07:09:37.157Z,96718.44
2022-08-28T07:10:39.087Z,96712.56
2022-08-28T07:11:43.712Z,96713.63
2022-08-28T07:12:45.403Z,96714.69
2022-08-28T07:13:47.085Z,96711.34
2022-08-28T07:14:48.633Z,96709.75
2022-08-28T07:15:50.289Z,96705.97
2022-08-28T07:16:52.024Z,96708.78
2022-08-28T07:17:54.188Z,96714.44
2022-08-28T07:18:57.666Z,96710.31
2022-08-28T07:20:02.035Z,96709.19
2022-08-28T07:21:03.677Z,96705.84
2022-08-28T07:22:05.848Z,96713.09
2022-08-28T07:23:07.725Z,96708.94
2022-08-28T07:24:11.382Z,96716.88
2022-08-28T07:25:13.000Z,96713.34
2022-08-28T07:26:24.307Z,96709.28
2022-08-28T07:27:25.896Z,96710.59
2022-08-28T07:28:27.527Z,96712.00
2022-08-28T07:29:29.435Z,96707.84
2022-08-28T07:30:31.130Z,96709.41
2022-08-28T07:31:32.722Z,96714.25
2022-08-28T07:32:34.584Z,96707.47
2022-08-28T07:33:37.590Z,96705.44
2022-08-28T07:34:41.081Z,96701.47
2022-08-28T07:35:45.681Z,96700.38
2022-08-28T07:36:48.104Z,96705.88
2022-08-28T07:37:49.699Z,96707.09
2022-08-28T07:38:51.462Z,96700.97
2022-08-28T07:39:55.441Z,96706.97
2022-08-28T07:40:57.133Z,96704.63
2022-08-28T07:41:58.777Z,96699.59
2022-08-28T07:43:18.628Z,96699.97
2022-08-28T07:44:38.674Z,96697.28
2022-08-28T07:45:40.259Z,96698.34
2022-08-28T07:46:42.173Z,96697.59
2022-08-28T07:47:43.760Z,96702.56
2022-08-28T07:48:47.199Z,96700.47
2022-08-28T07:49:48.796Z,96700.94
2022-08-28T07:50:50.337Z,96694.63
2022-08-28T07:51:54.351Z,96701.59
2022-08-28T07:52:56.147Z,96696.41
2022-08-28T07:53:58.052Z,96693.06
2022-08-28T07:55:00.374Z,96695.22
2022-08-28T07:56:02.828Z,96693.22
2022-08-28T07:57:05.549Z,96688.44
2022-08-28T07:58:08.313Z,96684.44
2022-08-28T07:59:11.947Z,96688.13
2022-08-28T08:00:15.981Z,96678.25
2022-08-28T08:01:18.093Z,96685.13
2022-08-28T08:02:20.581Z,96680.34
2022-08-28T08:03:22.903Z,96685.38
2022-08-28T08:04:25.496Z,96677.56
2022-08-28T08:05:27.147Z,96684.31
2022-08-28T08:06:33.837Z,96678.78
2022-08-28T08:07:39.912Z,96676.34
2022-08-28T08:08:45.995Z,96680.38
2022-08-28T08:09:47.715Z,96681.59
2022-08-28T08:11:16.657Z,96675.16
2022-08-28T08:12:18.966Z,96678.19
2022-08-28T08:13:20.657Z,96680.09
2022-08-28T08:14:22.822Z,96676.84
2022-08-28T08:15:27.307Z,96680.50
2022-08-28T08:16:36.420Z,96679.47
2022-08-28T08:17:38.637Z,96679.41
2022-08-28T08:18:41.900Z,96674.59
2022-08-28T08:19:43.521Z,96676.41
2022-08-28T08:20:45.127Z,96668.53
2022-08-28T08:21:53.214Z,96675.75
2022-08-28T08:22:56.567Z,96674.66
2022-08-28T08:23:58.849Z,96672.47
2022-08-28T08:25:00.773Z,96669.22
2022-08-28T08:26:06.943Z,96671.50
2022-08-28T08:27:11.018Z,96665.44
2022-08-28T08:28:12.797Z,96664.94
2022-08-28T08:29:15.111Z,96661.53
2022-08-28T08:30:16.874Z,96662.78
2022-08-28T08:31:18.504Z,96664.81
2022-08-28T08:32:20.161Z,96666.38
2022-08-28T08:33:22.244Z,96660.06
2022-08-28T08:34:24.653Z,96664.16
2022-08-28T08:35:26.402Z,96660.09
2022-08-28T08:36:29.280Z,96660.69
2022-08-28T08:37:31.014Z,96661.53
2022-08-28T08:38:35.338Z,96655.34
2022-08-28T08:39:37.914Z,96667.66
2022-08-28T08:40:39.870Z,96663.28
2022-08-28T08:41:48.004Z,96654.91
2022-08-28T08:42:55.644Z,96663.53
2022-08-28T08:44:00.357Z,96653.00
2022-08-28T08:45:04.711Z,96660.81
2022-08-28T08:46:09.591Z,96653.88
2022-08-28T08:47:15.122Z,96654.44
2022-08-28T08:48:35.825Z,96654.38
2022-08-28T08:49:41.783Z,96658.97
2022-08-28T08:50:43.418Z,96647.13
2022-08-28T08:52:05.183Z,96647.28
2022-08-28T08:53:20.124Z,96650.31
2022-08-28T08:54:22.069Z,96647.28
2022-08-28T08:55:27.105Z,96650.78
2022-08-28T08:56:34.915Z,96648.91
2022-08-28T08:57:39.102Z,96648.75
2022-08-28T08:58:44.338Z,96650.63
2022-08-28T08:59:46.437Z,96652.19
2022-08-28T09:00:57.303Z,96648.22
2022-08-28T09:02:14.011Z,96649.59
2022-08-28T09:03:54.154Z,96644.06
2022-08-28T09:05:03.866Z,96642.19
2022-08-28T09:06:12.561Z,96638.81
2022-08-28T09:07:20.349Z,96643.06
2022-08-28T09:08:30.151Z,96638.28
2022-08-28T09:09:31.663Z,96646.97
2022-08-28T09:10:41.476Z,96636.69
2022-08-28T09:11:57.258Z,96641.94
2022-08-28T09:13:23.676Z,96640.13
2022-08-28T09:14:57.565Z,96635.81
2022-08-28T09:16:01.625Z,96629.28
2022-08-28T09:17:05.651Z,96636.91
2022-08-28T09:18:27.199Z,96635.31
2022-08-28T09:19:29.332Z,96635.91
2022-08-28T09:20:33.113Z,96630.38
2022-08-28T09:21:40.105Z,96633.00
2022-08-28T09:22:45.065Z,96632.09
2022-08-28T09:23:46.900Z,96629.84
2022-08-28T09:24:48.843Z,96628.44
2022-08-28T09:25:54.900Z,96624.16
2022-08-28T09:27:25.039Z,96623.84
2022-08-28T09:28:44.703Z,96618.25
2022-08-28T09:29:55.561Z,96627.63
2022-08-28T09:31:02.295Z,96626.38
2022-08-28T09:32:25.840Z,96622.38
2022-08-28T09:33:49.316Z,96623.16
2022-08-28T09:35:34.160Z,96623.22
2022-08-28T09:36:38.269Z,96618.28
2022-08-28T09:37:41.964Z,96613.50
2022-08-28T09:38:43.652Z,96618.22
2022-08-28T09:39:48.759Z,96615.72
2022-08-28T09:41:25.135Z,96621.34
2022-08-28T09:42:45.346Z,96616.50
2022-08-28T09:43:46.964Z,96609.34
2022-08-28T09:45:13.527Z,96614.25
2022-08-28T09:46:32.576Z,96609.13
2022-08-28T09:47:34.129Z,96607.72
2022-08-28T09:48:40.786Z,96605.47
2022-08-28T09:49:42.342Z,96599.25
2022-08-28T09:50:58.181Z,96605.97
2022-08-28T09:52:23.064Z,96596.22
2022-08-28T09:53:28.498Z,96600.38
2022-08-28T09:54:32.941Z,96598.69
2022-08-28T09:55:46.796Z,96590.69
2022-08-28T09:56:50.561Z,96593.34
2022-08-28T09:57:52.802Z,96588.44
2022-08-28T09:59:02.242Z,96588.56
2022-08-28T10:00:04.972Z,96581.03
2022-08-28T10:01:30.083Z,96596.25
2022-08-28T10:03:10.092Z,96590.94
2022-08-28T10:04:18.048Z,96591.84
2022-08-28T10:05:34.887Z,96587.88
2022-08-28T10:06:37.484Z,96586.16
2022-08-28T10:07:46.422Z,96586.31
2022-08-28T10:09:26.807Z,96585.22
2022-08-28T10:10:54.601Z,96580.59
2022-08-28T10:12:01.627Z,96583.06
2022-08-28T10:13:14.826Z,96584.16
2022-08-28T10:14:28.351Z,96574.44
2022-08-28T10:15:42.966Z,96575.19
2022-08-28T10:17:26.170Z,96575.00
2022-08-28T10:18:48.614Z,96572.94
2022-08-28T10:20:03.700Z,96569.41
2022-08-28T10:21:14.043Z,96564.25
2022-08-28T10:22:28.832Z,96566.56
2022-08-28T10:23:36.717Z,96566.00
2022-08-28T10:24:59.441Z,96564.66
2022-08-28T10:26:29.867Z,96551.34
2022-08-28T10:27:40.461Z,96555.25
2022-08-28T10:28:57.338Z,96546.00
2022-08-28T10:30:09.990Z,96548.84
2022-08-28T10:31:42.606Z,96556.09
2022-08-28T10:33:07.011Z,96556.66
2022-08-28T10:34:46.894Z,96550.53
2022-08-28T10:36:06.749Z,96547.84
2022-08-28T10:37:17.947Z,96552.22
2022-08-28T10:38:36.500Z,96551.25
2022-08-28T10:40:04.884Z,96554.59
2022-08-28T10:41:18.193Z,96550.28
2022-08-28T10:42:36.338Z,96558.97
2022-08-28T10:43:49.777Z,96557.25
2022-08-28T10:45:05.312Z,96552.25
2022-08-28T10:46:27.078Z,96555.38
2022-08-28T10:47:29.684Z,96553.94
2022-08-28T10:48:34.408Z,96548.63
2022-08-28T10:49:37.052Z,96546.94
2022-08-28T10:50:47.193Z,96546.56
2022-08-28T10:52:27.521Z,96550.28
2022-08-28T10:53:40.601Z,96539.41
2022-08-28T10:54:54.155Z,96532.66
2022-08-28T10:56:00.047Z,96542.38
2022-08-28T10:57:38.863Z,96541.44
2022-08-28T10:58:42.155Z,96540.84
2022-08-28T10:59:49.017Z,96539.91
2022-08-28T11:00:52.824Z,96537.81
2022-08-28T11:01:54.522Z,96531.72
2022-08-28T11:03:01.309Z,96538.16
2022-08-28T11:04:10.409Z,96536.56
2022-08-28T11:05:12.781Z,96527.78
2022-08-28T11:06:23.264Z,96529.38
2022-08-28T11:07:41.803Z,96533.31
2022-08-28T11:08:52.949Z,96529.31
2022-08-28T11:09:54.639Z,96521.06
2022-08-28T11:10:58.551Z,96521.47
2022-08-28T11:12:10.142Z,96520.78
2022-08-28T11:13:12.781Z,96529.69
2022-08-28T11:14:31.130Z,96529.63
2022-08-28T11:15:37.171Z,96523.63
2022-08-28T11:16:46.583Z,96525.72
2022-08-28T11:17:48.330Z,96518.63
2022-08-28T11:19:22.188Z,96522.47
2022-08-28T11:20:28.420Z,96520.88
2022-08-28T11:21:51.809Z,96514.34
2022-08-28T11:23:08.994Z,96519.16
2022-08-28T11:24:28.415Z,96521.16
2022-08-28T11:25:54.816Z,96518.22
2022-08-28T11:27:21.596Z,96520.44
2022-08-28T11:28:27.095Z,96510.97
2022-08-28T11:30:01.912Z,96513.38
2022-08-28T11:31:06.588Z,96507.84
2022-08-28T11:32:39.053Z,96507.97
2022-08-28T11:33:53.098Z,96500.47
2022-08-28T11:35:17.533Z,96499.63
2022-08-28T11:36:21.620Z,96503.75
2022-08-28T11:37:44.920Z,96503.75
2022-08-28T11:38:46.891Z,96503.22
2022-08-28T11:39:48.522Z,96504.25
2022-08-28T11:40:55.177Z,96501.19
2022-08-28T11:42:13.349Z,96496.91
2022-08-28T11:43:16.130Z,96498.38
2022-08-28T11:44:26.527Z,96494.19
2022-08-28T11:45:46.615Z,96502.75
2022-08-28T11:46:50.860Z,96490.72
2022-08-28T11:47:56.400Z,96496.28
2022-08-28T11:49:01.563Z,96490.91
2022-08-28T11:50:13.312Z,96492.94
2022-08-28T11:51:17.756Z,96494.75
2022-08-28T11:52:44.098Z,96491.09
2022-08-28T11:54:23.385Z,96496.53
2022-08-28T11:55:54.441Z,96499.38
2022-08-28T11:57:18.084Z,96493.69
2022-08-28T11:58:47.185Z,96493.19
2022-08-28T12:00:10.657Z,96491.66
2022-08-28T12:01:24.896Z,96489.56
2022-08-28T12:02:43.084Z,96487.25
2022-08-28T12:03:55.429Z,96490.56
2022-08-28T12:04:57.287Z,96492.41
2022-08-28T12:06:00.562Z,96486.53
2022-08-28T12:07:15.932Z,96483.69
2022-08-28T12:08:45.016Z,96483.41
2022-08-28T12:09:48.468Z,96483.25
2022-08-28T12:10:56.061Z,96482.00
2022-08-28T12:12:09.319Z,96483.66
2022-08-28T12:13:50.984Z,96484.06
2022-08-28T12:14:55.106Z,96483.66
2022-08-28T12:16:06.633Z,96484.22
2022-08-28T12:17:25.203Z,96483.16
2022-08-28T12:18:57.937Z,96479.56
2022-08-28T12:20:10.407Z,96480.59
2022-08-28T12:21:25.517Z,96478.75
2022-08-28T12:22:52.905Z,96474.03
2022-08-28T12:24:09.053Z,96479.22
2022-08-28T12:25:39.679Z,96470.50
2022-08-28T12:26:49.367Z,96475.06
2022-08-28T12:27:52.705Z,96472.50
2022-08-28T12:28:57.895Z,96469.50
2022-08-28T12:30:02.119Z,96465.31
2022-08-28T12:31:06.454Z,96466.97
2022-08-28T12:32:37.462Z,96469.59
2022-08-28T12:34:03.930Z,96465.06
2022-08-28T12:35:29.576Z,96463.47
2022-08-28T12:36:31.664Z,96462.22
2022-08-28T12:37:53.254Z,96466.72
2022-08-28T12:38:58.416Z,96466.22
2022-08-28T12:40:05.300Z,96467.47
2022-08-28T12:41:16.988Z,96468.25
2022-08-28T12:42:22.465Z,96462.91
2022-08-28T12:43:41.729Z,96464.84
2022-08-28T12:44:49.052Z,96458.63
2022-08-28T12:46:19.304Z,96463.91
2022-08-28T12:47:23.705Z,96458.09
2022-08-28T12:48:31.670Z,96458.09
2022-08-28T12:49:37.028Z,96459.56
2022-08-28T12:50:39.916Z,96458.09
2022-08-28T12:51:41.535Z,96457.09
2022-08-28T12:52:52.107Z,96452.66
2022-08-28T12:53:57.204Z,96456.03
2022-08-28T12:54:58.955Z,96453.72
2022-08-28T12:56:00.559Z,96453.41
2022-08-28T12:57:08.331Z,96453.09
2022-08-28T12:58:30.705Z,96457.00
2022-08-28T12:59:44.043Z,96453.44
2022-08-28T13:00:54.939Z,96456.69